Time;durP1;ratioP1;P1;durP2;ratioP2;P2;SDS_P1;SDS_P2;PMS_P1;PMS_P2;Temp;Humidity;BMP_temperature;BMP_pressure;BME280_temperature;BME280_humidity;BME280_pressure;Samples;Min_cycle;Max_cycle;Signal;HPM_P1;HPM_P2
2021/08/28 00:00:51;;;;;;;1.87;0.60;;;19.20;57.50;;;;;;2570131;52;20952;-80
2021/08/28 00:03:21;;;;;;;1.77;0.68;;;19.10;57.50;;;;;;2560681;53;20945;-82
2021/08/28 00:05:48;;;;;;;3.35;0.60;;;19.10;57.70;;;;;;2571006;53;20964;-82
2021/08/28 00:08:14;;;;;;;1.05;0.40;;;19.20;57.70;;;;;;2564565;52;20976;-81
2021/08/28 00:10:40;;;;;;;1.55;0.50;;;19.10;57.60;;;;;;2560882;53;21004;-82
2021/08/28 00:13:09;;;;;;;2.25;0.70;;;19.10;57.60;;;;;;2550942;53;20996;-83
2021/08/28 00:15:36;;;;;;;2.90;0.80;;;19.10;57.60;;;;;;2553576;53;21474;-83
2021/08/28 00:18:03;;;;;;;1.65;0.60;;;19.20;57.70;;;;;;2307951;54;21052;-82
2021/08/28 00:20:29;;;;;;;1.42;0.50;;;19.20;57.90;;;;;;2324740;54;20928;-83
2021/08/28 00:23:00;;;;;;;1.25;0.50;;;19.10;57.80;;;;;;2332012;54;21037;-83
2021/08/28 00:25:31;;;;;;;1.90;0.70;;;19.10;57.90;;;;;;2553834;53;22281;-82
2021/08/28 00:27:58;;;;;;;1.37;0.50;;;19.10;57.80;;;;;;2331364;54;21048;-83
2021/08/28 00:30:24;;;;;;;2.42;0.70;;;19.10;57.80;;;;;;2553093;53;21075;-83
2021/08/28 00:32:51;;;;;;;1.67;0.45;;;19.10;57.80;;;;;;2562123;53;21104;-82
2021/08/28 00:35:18;;;;;;;3.10;0.68;;;19.10;57.90;;;;;;2320884;54;20964;-82
2021/08/28 00:37:44;;;;;;;1.75;0.60;;;19.10;58.00;;;;;;2569203;53;21012;-83
2021/08/28 00:40:11;;;;;;;1.77;0.70;;;19.10;58.10;;;;;;2566678;53;20917;-83
2021/08/28 00:42:49;;;;;;;1.33;0.52;;;19.10;58.20;;;;;;2565720;53;20984;-82
2021/08/28 00:45:15;;;;;;;1.60;0.57;;;19.10;58.40;;;;;;2565568;53;20944;-83
2021/08/28 00:47:51;;;;;;;1.58;0.50;;;19.20;58.30;;;;;;2325712;53;20968;-83
2021/08/28 00:50:18;;;;;;;2.70;0.60;;;19.10;58.40;;;;;;2559243;53;20984;-82
2021/08/28 00:52:45;;;;;;;1.33;0.40;;;19.10;58.30;;;;;;2328231;53;21718;-83
2021/08/28 00:55:11;;;;;;;1.42;0.50;;;19.20;58.40;;;;;;2533467;53;20925;-83
2021/08/28 00:57:38;;;;;;;1.33;0.62;;;19.10;58.30;;;;;;2569318;53;20965;-81
2021/08/28 01:00:07;;;;;;;1.95;0.70;;;19.10;58.00;;;;;;2565071;53;22105;-82
2021/08/28 01:02:34;;;;;;;1.73;0.60;;;19.10;58.20;;;;;;2562578;53;22007;-83
2021/08/28 01:05:20;;;;;;;3.45;0.60;;;19.10;58.10;;;;;;2561313;53;21072;-82
2021/08/28 01:08:44;;;;;;;1.75;0.60;;;19.10;58.30;;;;;;2546443;53;21003;-82
2021/08/28 01:11:25;;;;;;;1.27;0.40;;;19.10;58.30;;;;;;2570162;53;21008;-83
2021/08/28 01:13:54;;;;;;;1.48;0.60;;;19.10;58.20;;;;;;2571092;52;21028;-83
2021/08/28 01:16:21;;;;;;;1.65;0.70;;;19.10;58.10;;;;;;2327532;53;20944;-83
2021/08/28 01:18:49;;;;;;;1.08;0.40;;;19.10;58.10;;;;;;2328680;54;20965;-83
2021/08/28 01:21:32;;;;;;;1.45;0.52;;;19.10;58.10;;;;;;2534254;53;21004;-83
2021/08/28 01:24:00;;;;;;;1.42;0.43;;;19.10;58.40;;;;;;2334743;53;20929;-83
2021/08/28 01:26:28;;;;;;;1.77;0.70;;;19.10;58.20;;;;;;2551741;53;20993;-83
2021/08/28 01:29:34;;;;;;;3.87;0.70;;;19.10;58.20;;;;;;2328338;53;21942;-82
2021/08/28 01:32:00;;;;;;;1.85;0.62;;;19.10;58.40;;;;;;2320799;54;20937;-83
2021/08/28 01:34:27;;;;;;;2.20;0.60;;;19.10;58.20;;;;;;2325273;53;21561;-82
2021/08/28 01:36:53;;;;;;;1.75;0.60;;;19.00;58.10;;;;;;2563103;53;20920;-82
2021/08/28 01:39:20;;;;;;;2.20;0.65;;;19.00;58.10;;;;;;2320099;54;20992;-83
2021/08/28 01:41:48;;;;;;;1.25;0.40;;;19.00;58.10;;;;;;2569606;53;21269;-82
2021/08/28 01:44:15;;;;;;;2.03;0.50;;;19.00;58.10;;;;;;2322088;54;20920;-83
2021/08/28 01:46:41;;;;;;;1.25;0.55;;;19.00;58.20;;;;;;2326645;54;20996;-83
2021/08/28 01:49:08;;;;;;;1.67;0.47;;;19.00;58.20;;;;;;2328642;54;20996;-83
2021/08/28 01:51:34;;;;;;;2.28;0.50;;;19.00;58.20;;;;;;2567117;53;21079;-82
2021/08/28 01:54:00;;;;;;;2.12;0.57;;;19.00;58.20;;;;;;2567347;53;20962;-83
2021/08/28 01:56:27;;;;;;;1.65;0.55;;;19.00;58.20;;;;;;2321727;54;21260;-83
2021/08/28 01:58:57;;;;;;;1.17;0.40;;;19.00;58.20;;;;;;2547204;53;20939;-82
2021/08/28 02:01:23;;;;;;;0.93;0.40;;;19.00;58.20;;;;;;2533957;53;20996;-83
2021/08/28 02:03:50;;;;;;;1.58;0.60;;;19.00;58.20;;;;;;2329561;53;21016;-83
2021/08/28 02:06:22;;;;;;;1.62;0.50;;;19.00;58.10;;;;;;2328206;53;21120;-82
2021/08/28 02:08:58;;;;;;;1.98;0.40;;;19.00;58.20;;;;;;2565574;53;20928;-83
2021/08/28 02:11:28;;;;;;;1.27;0.32;;;18.90;58.10;;;;;;2330739;53;21000;-82
2021/08/28 02:13:58;;;;;;;0.93;0.40;;;18.90;58.00;;;;;;2304466;54;21104;-82
2021/08/28 02:16:25;;;;;;;1.70;0.50;;;18.90;58.00;;;;;;2304274;54;21024;-82
2021/08/28 02:18:58;;;;;;;1.52;0.60;;;18.90;58.00;;;;;;2528234;53;22111;-82
2021/08/28 02:21:24;;;;;;;2.10;0.77;;;18.90;58.10;;;;;;2302507;54;21959;-83
2021/08/28 02:23:58;;;;;;;0.77;0.40;;;18.80;58.00;;;;;;2323460;54;21005;-82
2021/08/28 02:26:25;;;;;;;1.45;0.60;;;18.80;58.10;;;;;;2533365;53;21028;-82
2021/08/28 02:28:54;;;;;;;1.15;0.40;;;18.80;58.10;;;;;;2558294;53;21060;-84
2021/08/28 02:31:22;;;;;;;2.33;0.70;;;18.70;58.10;;;;;;2562186;53;21056;-83
2021/08/28 02:33:48;;;;;;;2.00;0.60;;;18.70;58.10;;;;;;2567409;53;20981;-82
2021/08/28 02:36:15;;;;;;;2.47;0.62;;;18.70;58.30;;;;;;2564221;53;20940;-83
2021/08/28 02:38:42;;;;;;;1.52;0.60;;;18.60;58.30;;;;;;2561490;53;20993;-82
2021/08/28 02:41:09;;;;;;;1.90;0.57;;;18.60;58.40;;;;;;2315104;54;21396;-83
2021/08/28 02:43:35;;;;;;;2.65;0.80;;;18.60;58.60;;;;;;2326693;54;20968;-83
2021/08/28 02:46:01;;;;;;;2.05;0.80;;;18.60;58.70;;;;;;2561591;53;20965;-82
2021/08/28 02:48:31;;;;;;;1.37;0.70;;;18.60;58.80;;;;;;2570607;53;20940;-82
2021/08/28 02:50:59;;;;;;;1.65;0.50;;;18.50;58.80;;;;;;2571637;53;21287;-82
2021/08/28 02:53:25;;;;;;;1.70;0.70;;;18.60;58.90;;;;;;2570375;53;20956;-83
2021/08/28 02:55:52;;;;;;;1.17;0.52;;;18.50;58.90;;;;;;2561397;53;20989;-82
2021/08/28 02:58:22;;;;;;;1.85;0.62;;;18.50;58.90;;;;;;2325576;54;20941;-83
2021/08/28 03:00:48;;;;;;;1.55;0.60;;;18.60;59.00;;;;;;2328727;54;20933;-84
2021/08/28 03:03:15;;;;;;;1.12;0.45;;;18.60;59.00;;;;;;2565653;53;20944;-83
2021/08/28 03:05:41;;;;;;;2.00;0.68;;;18.60;59.10;;;;;;2325463;54;20956;-82
2021/08/28 03:08:08;;;;;;;1.87;0.50;;;18.60;59.10;;;;;;2325066;54;22011;-83
2021/08/28 03:10:35;;;;;;;2.00;0.65;;;18.60;59.10;;;;;;2326480;53;21028;-83
2021/08/28 03:13:02;;;;;;;2.40;0.50;;;18.60;59.10;;;;;;2564380;53;20941;-82
2021/08/28 03:15:28;;;;;;;1.67;0.70;;;18.60;59.20;;;;;;2559596;53;21016;-82
2021/08/28 03:17:56;;;;;;;2.05;0.70;;;18.60;59.20;;;;;;2546814;53;21040;-84
2021/08/28 03:20:22;;;;;;;1.62;0.80;;;18.60;59.20;;;;;;2326581;53;21063;-83
2021/08/28 03:22:49;;;;;;;1.75;0.50;;;18.60;59.30;;;;;;2569046;53;22007;-81
2021/08/28 03:25:16;;;;;;;2.30;0.77;;;18.60;59.30;;;;;;2567847;53;20977;-82
2021/08/28 03:27:42;;;;;;;1.30;0.40;;;18.60;59.30;;;;;;2563283;53;21962;-83
2021/08/28 03:30:13;;;;;;;1.48;0.60;;;18.60;59.30;;;;;;2561423;53;21715;-82
2021/08/28 03:32:40;;;;;;;1.48;0.60;;;18.60;59.30;;;;;;2564770;53;22171;-84
2021/08/28 03:35:09;;;;;;;1.67;0.57;;;18.60;59.20;;;;;;2548255;53;21094;-84
2021/08/28 03:37:35;;;;;;;2.30;0.62;;;18.60;59.20;;;;;;2564510;53;20968;-84
2021/08/28 03:40:02;;;;;;;2.65;0.82;;;18.60;59.10;;;;;;2325314;54;20972;-84
2021/08/28 03:42:28;;;;;;;1.98;0.75;;;18.60;59.10;;;;;;2569035;52;21931;-84
2021/08/28 03:44:58;;;;;;;3.72;0.82;;;18.60;59.10;;;;;;2328062;54;21103;-83
2021/08/28 03:47:24;;;;;;;1.67;0.60;;;18.60;59.20;;;;;;2563599;53;20945;-83
2021/08/28 03:49:51;;;;;;;1.40;0.50;;;18.60;59.20;;;;;;2327555;54;20995;-82
2021/08/28 03:52:17;;;;;;;1.75;0.40;;;18.60;59.30;;;;;;2555117;53;20932;-82
2021/08/28 03:54:46;;;;;;;1.73;0.55;;;18.60;59.30;;;;;;2569072;53;20977;-82
2021/08/28 03:57:12;;;;;;;2.00;0.70;;;18.60;59.30;;;;;;2561308;52;20977;-82
2021/08/28 03:59:39;;;;;;;1.40;0.60;;;18.60;59.30;;;;;;2562872;53;20933;-82
2021/08/28 04:02:05;;;;;;;2.15;0.60;;;18.60;59.40;;;;;;2567453;53;21451;-82
2021/08/28 04:04:32;;;;;;;2.28;0.60;;;18.60;59.50;;;;;;2569472;53;21110;-82
2021/08/28 04:06:58;;;;;;;3.72;0.80;;;18.60;59.50;;;;;;2327971;54;20952;-82
2021/08/28 04:09:25;;;;;;;2.62;0.60;;;18.60;59.50;;;;;;2327556;54;20989;-82
2021/08/28 04:11:51;;;;;;;2.25;0.65;;;18.60;59.50;;;;;;2549836;53;20952;-82
2021/08/28 04:14:17;;;;;;;1.98;0.75;;;18.60;59.50;;;;;;2325738;54;20948;-82
2021/08/28 04:16:44;;;;;;;2.35;1.00;;;18.60;59.50;;;;;;2319802;54;22081;-82
2021/08/28 04:19:10;;;;;;;2.58;0.80;;;18.60;59.60;;;;;;2329196;54;21032;-82
2021/08/28 04:21:36;;;;;;;2.12;0.70;;;18.60;59.50;;;;;;2560983;53;21810;-82
2021/08/28 04:24:03;;;;;;;3.15;1.00;;;18.60;59.50;;;;;;2324747;54;22096;-82
2021/08/28 04:26:29;;;;;;;2.95;0.98;;;18.60;59.50;;;;;;2328155;54;20949;-81
2021/08/28 04:28:56;;;;;;;2.60;0.98;;;18.60;59.50;;;;;;2323795;54;21084;-82
2021/08/28 04:31:23;;;;;;;2.85;0.88;;;18.60;59.40;;;;;;2568197;52;20937;-82
2021/08/28 04:33:50;;;;;;;2.65;0.80;;;18.60;59.40;;;;;;2324079;54;20936;-82
2021/08/28 04:36:16;;;;;;;3.92;0.88;;;18.60;59.40;;;;;;2570338;52;22031;-83
2021/08/28 04:38:43;;;;;;;2.25;0.95;;;18.60;59.30;;;;;;2562564;53;20944;-82
2021/08/28 04:41:09;;;;;;;3.20;0.90;;;18.60;59.30;;;;;;2569257;53;21047;-82
2021/08/28 04:43:36;;;;;;;3.15;1.10;;;18.60;59.40;;;;;;2560956;53;20992;-83
2021/08/28 04:46:03;;;;;;;2.37;1.05;;;18.60;59.40;;;;;;2343875;53;22178;-82
2021/08/28 04:48:32;;;;;;;2.87;1.02;;;18.60;59.20;;;;;;2535349;53;20987;-82
2021/08/28 04:51:01;;;;;;;2.90;0.90;;;18.60;59.20;;;;;;2538247;53;21011;-82
2021/08/28 04:53:27;;;;;;;2.72;0.80;;;18.60;59.40;;;;;;2531723;53;21282;-83
2021/08/28 04:55:54;;;;;;;1.83;0.80;;;18.60;59.50;;;;;;2537421;54;21421;-82
2021/08/28 04:58:20;;;;;;;1.80;0.70;;;18.60;59.50;;;;;;2538192;54;20983;-82
2021/08/28 05:00:46;;;;;;;2.62;0.70;;;18.60;59.50;;;;;;2537143;54;20943;-82
2021/08/28 05:03:13;;;;;;;2.90;1.00;;;18.70;59.50;;;;;;2537531;54;20972;-83
2021/08/28 05:05:39;;;;;;;6.87;1.48;;;18.70;59.50;;;;;;2533309;54;21046;-82
2021/08/28 05:08:06;;;;;;;2.10;0.80;;;18.60;59.60;;;;;;2299696;54;21950;-82
2021/08/28 05:10:32;;;;;;;3.62;0.80;;;18.70;59.40;;;;;;2538457;54;21058;-82
2021/08/28 05:12:59;;;;;;;2.00;0.70;;;18.70;59.50;;;;;;2301514;54;20960;-82
2021/08/28 05:15:25;;;;;;;3.47;1.00;;;18.70;59.50;;;;;;2535335;53;21007;-82
2021/08/28 05:17:52;;;;;;;4.18;0.88;;;18.70;59.50;;;;;;2526337;53;21014;-82
2021/08/28 05:20:18;;;;;;;3.90;0.77;;;18.70;59.50;;;;;;2494931;54;20959;-81
2021/08/28 05:22:45;;;;;;;2.33;0.88;;;18.70;59.50;;;;;;2534969;54;20923;-82
2021/08/28 05:25:11;;;;;;;2.10;0.90;;;18.80;59.50;;;;;;2538990;54;20959;-82
2021/08/28 05:27:37;;;;;;;2.95;0.90;;;18.80;59.50;;;;;;2533318;53;21010;-82
2021/08/28 05:30:04;;;;;;;2.70;0.80;;;18.80;60.00;;;;;;2536216;53;21015;-81
2021/08/28 05:32:31;;;;;;;2.45;0.85;;;18.80;59.50;;;;;;2532321;53;20980;-82
2021/08/28 05:34:57;;;;;;;2.42;0.88;;;18.80;59.40;;;;;;2534879;53;20939;-82
2021/08/28 05:37:24;;;;;;;2.92;1.00;;;18.80;59.40;;;;;;2296855;54;20982;-82
2021/08/28 05:39:50;;;;;;;3.05;1.10;;;18.80;59.40;;;;;;2521975;54;20972;-83
2021/08/28 05:42:16;;;;;;;2.83;0.90;;;18.80;59.40;;;;;;2532703;54;21058;-82
2021/08/28 05:44:43;;;;;;;4.37;0.90;;;18.80;59.90;;;;;;2302386;54;21078;-82
2021/08/28 05:47:09;;;;;;;5.30;1.00;;;18.80;59.30;;;;;;2533853;53;20959;-82
2021/08/28 05:49:36;;;;;;;3.67;1.00;;;18.80;59.30;;;;;;2529768;54;20978;-82
2021/08/28 05:52:02;;;;;;;2.33;0.88;;;18.80;59.30;;;;;;2535465;54;21057;-80
2021/08/28 05:54:28;;;;;;;2.05;0.80;;;18.80;59.30;;;;;;2299653;54;21059;-82
2021/08/28 05:56:55;;;;;;;2.67;1.00;;;18.80;59.30;;;;;;2531438;54;20966;-82
2021/08/28 05:59:21;;;;;;;3.58;1.23;;;18.80;59.40;;;;;;2300022;54;20927;-83
2021/08/28 06:01:48;;;;;;;4.37;1.00;;;18.70;59.30;;;;;;2532934;54;20986;-81
2021/08/28 06:04:14;;;;;;;3.22;1.23;;;18.70;59.40;;;;;;2530156;53;20935;-82
2021/08/28 06:06:40;;;;;;;2.60;0.95;;;18.70;59.40;;;;;;2304672;54;20987;-82
2021/08/28 06:09:07;;;;;;;2.55;1.08;;;18.70;59.50;;;;;;2515591;53;21581;-82
2021/08/28 06:11:33;;;;;;;2.22;0.90;;;18.70;59.50;;;;;;2529543;54;21047;-82
2021/08/28 06:13:59;;;;;;;3.17;1.20;;;18.70;59.60;;;;;;2534666;54;21588;-82
2021/08/28 06:16:26;;;;;;;2.62;1.12;;;18.70;59.70;;;;;;2527054;53;20985;-82
2021/08/28 06:18:53;;;;;;;3.80;1.25;;;18.70;59.80;;;;;;2525157;53;20970;-82
2021/08/28 06:21:19;;;;;;;3.83;1.12;;;18.70;59.90;;;;;;2534477;54;21493;-81
2021/08/28 06:23:46;;;;;;;2.03;0.88;;;18.70;60.00;;;;;;2297651;54;20987;-82
2021/08/28 06:26:12;;;;;;;3.95;1.02;;;18.70;60.00;;;;;;2299054;54;20935;-81
2021/08/28 06:28:39;;;;;;;3.58;0.98;;;18.80;60.20;;;;;;2303853;54;20946;-81
2021/08/28 06:31:05;;;;;;;3.67;1.12;;;18.80;60.20;;;;;;2296862;54;21001;-82
2021/08/28 06:33:31;;;;;;;4.35;1.10;;;18.80;60.20;;;;;;2531345;53;20951;-82
2021/08/28 06:35:58;;;;;;;2.53;0.98;;;18.80;60.20;;;;;;2297639;54;20936;-82
2021/08/28 06:38:24;;;;;;;1.95;0.88;;;18.80;60.20;;;;;;2504459;54;22910;-82
2021/08/28 06:40:50;;;;;;;3.60;1.30;;;18.90;60.10;;;;;;2531155;54;21066;-82
2021/08/28 06:43:16;;;;;;;2.78;1.23;;;18.90;60.30;;;;;;2529245;54;21034;-81
2021/08/28 06:45:43;;;;;;;3.45;1.10;;;18.90;60.30;;;;;;2299695;54;22293;-82
2021/08/28 06:48:09;;;;;;;5.65;1.17;;;18.90;60.20;;;;;;2536479;54;20931;-82
2021/08/28 06:50:37;;;;;;;3.37;1.10;;;18.90;60.00;;;;;;2536451;54;21054;-82
2021/08/28 06:53:03;;;;;;;4.05;1.10;;;19.00;60.20;;;;;;2528709;53;20969;-82
2021/08/28 06:55:29;;;;;;;4.70;1.23;;;19.00;60.20;;;;;;2508654;54;20954;-82
2021/08/28 06:57:56;;;;;;;4.40;1.67;;;19.00;60.20;;;;;;2290972;54;21550;-82
2021/08/28 07:00:23;;;;;;;3.28;1.27;;;19.10;60.30;;;;;;2286546;55;20959;-82
2021/08/28 07:02:50;;;;;;;3.87;1.20;;;19.10;60.20;;;;;;2534425;53;21034;-82
2021/08/28 07:05:16;;;;;;;3.85;1.37;;;19.10;60.10;;;;;;2498432;53;21713;-82
2021/08/28 07:07:42;;;;;;;3.37;1.30;;;19.10;60.00;;;;;;2293625;54;21351;-82
2021/08/28 07:10:11;;;;;;;5.00;1.35;;;19.20;60.00;;;;;;2513877;53;21089;-82
2021/08/28 07:12:37;;;;;;;3.45;1.27;;;19.20;60.00;;;;;;2474838;54;20999;-82
2021/08/28 07:15:04;;;;;;;4.57;1.55;;;19.20;60.00;;;;;;2272578;55;21374;-82
2021/08/28 07:17:31;;;;;;;3.92;1.73;;;19.20;60.00;;;;;;2503208;55;20971;-82
2021/08/28 07:19:57;;;;;;;2.75;1.15;;;19.30;60.10;;;;;;2273889;55;20973;-83
2021/08/28 07:22:23;;;;;;;2.97;1.50;;;19.30;60.10;;;;;;2272081;54;20982;-82
2021/08/28 07:24:50;;;;;;;3.05;1.20;;;19.30;60.10;;;;;;2273149;55;20942;-82
2021/08/28 07:27:17;;;;;;;3.70;1.50;;;19.30;60.10;;;;;;2503012;55;20990;-82
2021/08/28 07:29:44;;;;;;;3.90;1.30;;;19.30;60.00;;;;;;2274521;56;20983;-83
2021/08/28 07:32:10;;;;;;;3.55;1.35;;;19.30;60.00;;;;;;2273157;56;21138;-82
2021/08/28 07:34:39;;;;;;;2.50;0.98;;;19.40;60.00;;;;;;2520384;52;21435;-82
2021/08/28 07:37:06;;;;;;;4.97;1.30;;;19.40;59.90;;;;;;2621495;52;21092;-83
2021/08/28 07:39:33;;;;;;;2.50;1.10;;;19.40;60.00;;;;;;2566642;53;20996;-81
2021/08/28 07:42:00;;;;;;;3.62;1.40;;;19.40;60.00;;;;;;2574808;52;21007;-81
2021/08/28 07:44:28;;;;;;;3.28;1.60;;;19.50;60.00;;;;;;2538992;52;21035;-81
2021/08/28 07:46:55;;;;;;;3.22;1.30;;;19.50;60.00;;;;;;2539170;52;20999;-82
2021/08/28 07:49:21;;;;;;;4.03;1.20;;;19.50;59.90;;;;;;2300136;53;21025;-82
2021/08/28 07:51:48;;;;;;;3.33;1.30;;;19.50;59.80;;;;;;2540062;52;20935;-82
2021/08/28 07:54:14;;;;;;;3.12;1.17;;;19.50;59.80;;;;;;2301362;53;20955;-83
2021/08/28 07:56:41;;;;;;;3.20;1.40;;;19.50;59.70;;;;;;2539768;52;20916;-82
2021/08/28 07:59:07;;;;;;;4.15;1.58;;;19.50;59.70;;;;;;2534256;53;21417;-81
2021/08/28 08:01:34;;;;;;;4.05;1.60;;;19.50;59.70;;;;;;2567481;53;21419;-80
2021/08/28 08:04:00;;;;;;;3.50;1.73;;;19.50;59.60;;;;;;2564807;53;21920;-81
2021/08/28 08:06:27;;;;;;;4.03;1.73;;;19.50;59.60;;;;;;2561691;53;21070;-81
2021/08/28 08:08:53;;;;;;;3.45;1.52;;;19.40;59.40;;;;;;2320047;54;20918;-79
2021/08/28 08:11:19;;;;;;;4.82;1.70;;;19.40;59.40;;;;;;2573360;53;20914;-79
2021/08/28 08:13:46;;;;;;;4.20;2.05;;;19.40;59.50;;;;;;2572768;53;21984;-79
2021/08/28 08:16:12;;;;;;;4.53;2.12;;;19.40;59.50;;;;;;2570523;53;21970;-80
2021/08/28 08:18:39;;;;;;;3.22;1.62;;;19.40;59.50;;;;;;2327455;54;20959;-79
2021/08/28 08:21:05;;;;;;;4.95;1.90;;;19.20;59.40;;;;;;2571732;53;20914;-81
2021/08/28 08:23:32;;;;;;;4.40;2.03;;;19.30;59.60;;;;;;2333964;54;20946;-79
2021/08/28 08:25:58;;;;;;;4.62;1.95;;;19.40;59.80;;;;;;2331595;53;20935;-80
2021/08/28 08:28:25;;;;;;;4.78;1.87;;;19.30;59.80;;;;;;2563567;53;21022;-78
2021/08/28 08:30:51;;;;;;;5.35;1.95;;;19.30;60.50;;;;;;2571234;53;20962;-80
2021/08/28 08:33:18;;;;;;;4.05;2.15;;;19.30;59.90;;;;;;2574883;53;22017;-79
2021/08/28 08:35:44;;;;;;;4.93;2.22;;;19.30;59.90;;;;;;2541941;53;21005;-79
2021/08/28 08:38:10;;;;;;;4.50;2.37;;;19.30;59.90;;;;;;2576119;53;20974;-79
2021/08/28 08:40:36;;;;;;;3.85;2.20;;;19.30;60.00;;;;;;2569178;53;20967;-80
2021/08/28 08:43:04;;;;;;;5.15;2.20;;;19.30;60.10;;;;;;2309654;54;21906;-78
2021/08/28 08:45:31;;;;;;;4.43;1.90;;;19.40;60.30;;;;;;2569201;53;20941;-80
2021/08/28 08:47:57;;;;;;;3.70;2.03;;;19.40;60.20;;;;;;2329394;53;20916;-80
2021/08/28 08:50:24;;;;;;;3.80;1.85;;;19.40;60.10;;;;;;2330527;53;21488;-79
2021/08/28 08:52:58;;;;;;;3.25;1.83;;;19.50;60.40;;;;;;2572364;53;21535;-78
2021/08/28 08:55:24;;;;;;;4.37;2.10;;;19.60;60.60;;;;;;2572283;53;20935;-79
2021/08/28 08:58:07;;;;;;;3.95;2.08;;;19.60;60.50;;;;;;2570167;53;21836;-79
2021/08/28 09:00:34;;;;;;;5.28;1.95;;;19.60;60.50;;;;;;2568741;52;21230;-81
2021/08/28 09:03:00;;;;;;;4.20;2.22;;;19.50;60.30;;;;;;2331212;54;20990;-79
2021/08/28 09:05:27;;;;;;;4.20;2.37;;;19.60;60.30;;;;;;2575573;53;21499;-79
2021/08/28 09:07:53;;;;;;;4.93;2.17;;;19.80;60.40;;;;;;2331555;53;21861;-78
2021/08/28 09:10:19;;;;;;;3.90;2.05;;;19.80;60.20;;;;;;2573134;52;21887;-78
2021/08/28 09:12:46;;;;;;;3.50;1.73;;;19.90;60.20;;;;;;2561141;53;21953;-79
2021/08/28 09:15:12;;;;;;;4.20;2.12;;;19.90;60.10;;;;;;2596155;52;20935;-79
2021/08/28 09:17:39;;;;;;;4.72;2.10;;;19.90;60.00;;;;;;2350667;53;20949;-78
2021/08/28 09:20:19;;;;;;;5.18;2.20;;;20.00;60.00;;;;;;2351850;52;21026;-78
2021/08/28 09:22:45;;;;;;;3.45;1.95;;;20.00;60.00;;;;;;2351072;53;20983;-78
2021/08/28 09:25:13;;;;;;;4.50;2.05;;;20.10;60.10;;;;;;2350556;53;21397;-79
2021/08/28 09:27:43;;;;;;;4.10;2.10;;;20.10;60.00;;;;;;2599453;52;21448;-79
2021/08/28 09:30:50;;;;;;;4.72;2.28;;;20.10;60.00;;;;;;2599490;52;20986;-79
2021/08/28 09:33:19;;;;;;;4.30;2.00;;;20.20;60.00;;;;;;2339927;53;21841;-78
2021/08/28 09:35:51;;;;;;;5.32;2.35;;;20.30;59.80;;;;;;2341294;52;21004;-78
2021/08/28 09:38:22;;;;;;;4.43;2.12;;;20.30;59.70;;;;;;2606482;52;20993;-79
2021/08/28 09:40:54;;;;;;;3.83;2.03;;;20.40;59.80;;;;;;2610484;52;20995;-78
2021/08/28 09:43:21;;;;;;;;;;;20.40;59.70;;;;;;2591294;53;21040;-79
2021/08/28 09:45:49;;;;;;;3.50;2.20;;;20.50;59.70;;;;;;2572384;52;20077;-79
2021/08/28 09:48:15;;;;;;;5.15;2.30;;;20.50;59.50;;;;;;2588019;52;21023;-80
2021/08/28 09:50:46;;;;;;;4.10;1.80;;;20.60;59.60;;;;;;2359773;52;21930;-80
2021/08/28 09:53:21;;;;;;;4.43;2.17;;;20.70;59.80;;;;;;2593463;52;22058;-79
2021/08/28 09:55:54;;;;;;;3.22;2.10;;;20.70;59.60;;;;;;2603837;52;20966;-80
2021/08/28 09:58:23;;;;;;;3.83;2.35;;;20.80;59.70;;;;;;2594115;52;20984;-81
2021/08/28 10:00:49;;;;;;;5.18;2.42;;;20.90;59.80;;;;;;2344527;52;21006;-82
2021/08/28 10:03:21;;;;;;;4.80;2.60;;;20.90;59.70;;;;;;2348907;53;21041;-78
2021/08/28 10:05:47;;;;;;;5.00;2.70;;;21.00;59.60;;;;;;2576934;52;21015;-79
2021/08/28 10:08:14;;;;;;;4.15;2.47;;;21.10;59.50;;;;;;2582621;52;21883;-80
2021/08/28 10:10:40;;;;;;;4.05;2.15;;;21.10;59.30;;;;;;2337361;53;21311;-83
2021/08/28 10:13:22;;;;;;;4.70;2.50;;;21.20;59.20;;;;;;2587106;52;21027;-81
2021/08/28 10:15:49;;;;;;;5.32;2.47;;;21.20;58.90;;;;;;2601145;52;22152;-80
2021/08/28 10:18:15;;;;;;;3.55;2.25;;;21.30;58.90;;;;;;2599260;52;21031;-79
2021/08/28 10:20:42;;;;;;;3.72;2.03;;;21.30;58.70;;;;;;2588125;52;21371;-80
2021/08/28 10:23:09;;;;;;;3.40;1.95;;;21.40;58.60;;;;;;2353578;53;22278;-80
2021/08/28 10:25:40;;;;;;;3.67;2.03;;;21.40;58.50;;;;;;2586876;52;21072;-79
2021/08/28 10:28:09;;;;;;;3.97;2.00;;;21.40;58.40;;;;;;2583679;52;21845;-79
2021/08/28 10:30:38;;;;;;;3.33;1.90;;;21.40;58.30;;;;;;2629017;52;20908;-80
2021/08/28 10:33:04;;;;;;;3.97;1.92;;;21.40;58.20;;;;;;2587517;52;20970;-79
2021/08/28 10:35:30;;;;;;;3.85;1.98;;;21.50;58.10;;;;;;2345576;53;21371;-79
2021/08/28 10:37:57;;;;;;;3.30;2.00;;;21.50;58.00;;;;;;2360255;52;20950;-80
2021/08/28 10:40:24;;;;;;;4.47;1.92;;;21.50;57.90;;;;;;2359806;53;21914;-78
2021/08/28 10:42:52;;;;;;;4.15;1.77;;;21.40;57.70;;;;;;2588068;52;20964;-78
2021/08/28 10:45:29;;;;;;;3.85;1.92;;;21.50;57.70;;;;;;2598933;52;20990;-81
2021/08/28 10:47:57;;;;;;;3.00;1.75;;;21.60;57.50;;;;;;2574361;52;20974;-81
2021/08/28 10:50:23;;;;;;;3.97;2.00;;;21.50;57.60;;;;;;2356648;53;21816;-83
2021/08/28 10:52:50;;;;;;;3.97;2.05;;;21.50;57.60;;;;;;2584763;52;20910;-80
2021/08/28 10:55:17;;;;;;;3.17;1.85;;;21.50;57.50;;;;;;2332428;53;22052;-79
2021/08/28 10:57:44;;;;;;;3.20;1.90;;;21.50;57.50;;;;;;2330828;53;20965;-79
2021/08/28 11:00:16;;;;;;;3.50;2.12;;;21.50;57.90;;;;;;2573079;53;21042;-79
2021/08/28 11:03:01;;;;;;;3.72;1.73;;;21.50;57.60;;;;;;2568811;53;20941;-82
2021/08/28 11:05:29;;;;;;;3.60;2.20;;;21.40;57.30;;;;;;2329734;53;21309;-82
2021/08/28 11:08:14;;;;;;;3.65;2.12;;;21.30;57.40;;;;;;2333185;53;20976;-80
2021/08/28 11:11:35;;;;;;;3.60;1.83;;;21.50;57.90;;;;;;2579841;53;20933;-79
2021/08/28 11:14:11;;;;;;;3.25;1.73;;;21.60;57.60;;;;;;2582461;53;20945;-80
2021/08/28 11:16:55;;;;;;;3.92;2.20;;;21.60;57.30;;;;;;2319536;54;20969;-81
2021/08/28 11:19:49;;;;;;;3.40;1.80;;;21.60;57.20;;;;;;2582391;53;20997;-78
2021/08/28 11:22:23;;;;;;;3.65;2.28;;;21.60;57.10;;;;;;2343776;53;20940;-78
2021/08/28 11:24:56;;;;;;;3.55;1.90;;;21.50;57.20;;;;;;2525367;52;1315139;-77
2021/08/28 11:27:39;;;;;;;3.75;2.10;;;21.50;57.20;;;;;;2581099;53;20988;-79
2021/08/28 11:30:06;;;;;;;4.47;2.58;;;21.50;57.00;;;;;;2580217;53;20969;-78
2021/08/28 11:32:33;;;;;;;4.32;2.33;;;21.50;57.10;;;;;;2331725;53;20937;-79
2021/08/28 11:34:59;;;;;;;5.32;2.42;;;21.50;57.10;;;;;;2576698;53;20931;-78
2021/08/28 11:37:43;;;;;;;5.03;2.70;;;21.40;57.20;;;;;;2333478;53;20996;-81
2021/08/28 11:40:27;;;;;;;3.90;2.22;;;21.40;57.10;;;;;;2337287;53;21009;-78
2021/08/28 11:42:53;;;;;;;4.45;2.35;;;21.50;57.20;;;;;;2576823;53;21008;-77
2021/08/28 11:45:26;;;;;;;3.70;2.25;;;21.40;57.30;;;;;;2432319;52;143123;-71
2021/08/28 11:47:55;;;;;;;4.30;2.47;;;21.40;57.30;;;;;;2362461;53;20962;-71
2021/08/28 11:50:28;;;;;;;4.68;2.40;;;21.50;57.50;;;;;;2338821;53;20949;-70
2021/08/28 11:52:55;;;;;;;3.85;2.28;;;21.50;57.60;;;;;;2362643;52;21026;-69
2021/08/28 11:55:22;;;;;;;4.00;2.33;;;21.50;57.60;;;;;;2359183;53;20957;-72
2021/08/28 11:58:07;;;;;;;4.75;2.67;;;21.50;57.40;;;;;;2435568;52;20973;-69
2021/08/28 12:00:34;;;;;;;3.97;2.47;;;21.50;57.80;;;;;;2366464;53;20965;-71
2021/08/28 12:03:01;;;;;;;3.22;1.98;;;21.50;57.20;;;;;;2521691;52;21730;-74
2021/08/28 12:05:29;;;;;;;3.15;2.10;;;21.50;57.20;;;;;;2411999;53;21052;-70
2021/08/28 12:07:55;;;;;;;4.07;2.15;;;21.50;57.30;;;;;;2366672;53;21007;-73
2021/08/28 12:10:22;;;;;;;4.40;2.58;;;21.60;57.50;;;;;;2371192;52;21013;-70
2021/08/28 12:13:01;;;;;;;4.30;2.33;;;21.60;57.40;;;;;;2366862;53;20961;-70
2021/08/28 12:15:29;;;;;;;4.50;2.03;;;21.60;57.50;;;;;;2375851;52;21284;-71
2021/08/28 12:17:56;;;;;;;4.25;2.50;;;21.60;57.30;;;;;;2362013;53;21827;-74
2021/08/28 12:20:24;;;;;;;4.70;2.30;;;21.70;57.20;;;;;;2347978;53;20937;-70
2021/08/28 12:22:55;;;;;;;3.87;2.25;;;21.70;57.10;;;;;;2436473;52;20973;-68
2021/08/28 12:25:23;;;;;;;4.87;2.58;;;21.70;57.10;;;;;;2377117;52;21598;-71
2021/08/28 12:27:50;;;;;;;6.30;2.30;;;21.70;57.20;;;;;;2414040;52;21014;-74
2021/08/28 12:30:16;;;;;;;3.72;1.83;;;21.70;57.10;;;;;;2355748;53;20966;-72
2021/08/28 12:32:52;;;;;;;4.03;2.22;;;21.70;56.90;;;;;;2367459;53;20949;-72
2021/08/28 12:35:18;;;;;;;4.75;2.58;;;21.70;56.70;;;;;;2369766;53;21848;-70
2021/08/28 12:37:44;;;;;;;3.05;1.67;;;21.70;56.50;;;;;;2366963;53;20981;-70
2021/08/28 12:40:14;;;;;;;3.87;2.12;;;21.70;56.50;;;;;;2366837;53;21000;-71
2021/08/28 12:42:42;;;;;;;4.25;2.30;;;21.60;56.50;;;;;;2367222;53;21001;-70
2021/08/28 12:45:13;;;;;;;5.75;2.72;;;21.60;56.60;;;;;;2376005;52;20958;-74
2021/08/28 12:47:41;;;;;;;4.37;2.30;;;21.60;56.60;;;;;;2360808;52;21005;-71
2021/08/28 12:50:11;;;;;;;4.72;2.72;;;21.60;56.70;;;;;;2366186;52;20933;-72
2021/08/28 12:52:43;;;;;;;4.62;2.62;;;21.50;56.90;;;;;;2366887;53;20950;-71
2021/08/28 12:55:26;;;;;;;4.78;2.50;;;21.60;57.10;;;;;;2619677;52;21026;-70